createdAt,value
2018-04-08T00:00:07.491Z,42.80
2018-04-08T00:02:39.495Z,42.40
2018-04-08T00:05:13.090Z,43.20
2018-04-08T00:07:46.130Z,42.50
2018-04-08T00:10:50.502Z,42.70
2018-04-08T00:13:28.386Z,43.10
2018-04-08T00:16:30.167Z,43.30
2018-04-08T00:19:15.346Z,43.80
2018-04-08T00:22:07.647Z,43.80
2018-04-08T00:27:42.235Z,44.10
2018-04-08T00:33:17.395Z,44.00
2018-04-08T00:38:44.302Z,44.80
2018-04-08T00:41:27.722Z,44.80
2018-04-08T00:44:23.600Z,44.40
2018-04-08T00:47:53.358Z,44.40
2018-04-08T00:50:41.771Z,44.70
2018-04-08T05:22:15.506Z,52.60
2018-04-08T05:24:41.500Z,52.60
2018-04-08T05:27:11.604Z,52.60
2018-04-08T05:29:37.658Z,52.50
2018-04-08T05:32:04.383Z,53.20
2018-04-08T05:34:30.383Z,53.30
2018-04-08T05:36:56.710Z,53.20
2018-04-08T05:39:22.802Z,53.20
2018-04-08T05:41:48.801Z,53.10
2018-04-08T05:44:14.855Z,52.70
2018-04-08T05:46:40.867Z,52.80
2018-04-08T05:49:07.610Z,53.10
2018-04-08T05:51:33.590Z,53.10
2018-04-08T05:54:00.379Z,52.90
2018-04-08T05:56:26.362Z,52.80
2018-04-08T05:58:52.363Z,52.80
2018-04-08T06:01:18.355Z,52.40
2018-04-08T06:03:44.364Z,52.60
2018-04-08T06:06:11.116Z,52.30
2018-04-08T06:08:37.106Z,52.30
2018-04-08T06:11:03.855Z,52.50
2018-04-08T06:13:30.578Z,52.10
2018-04-08T06:15:57.313Z,52.80
2018-04-08T06:18:24.074Z,52.00
2018-04-08T06:20:50.835Z,52.10
2018-04-08T06:23:16.838Z,52.00
2018-04-08T06:25:43.599Z,51.90
2018-04-08T06:28:09.590Z,51.90
2018-04-08T06:30:36.356Z,51.80
2018-04-08T06:33:02.354Z,51.80
2018-04-08T06:35:29.123Z,51.60
2018-04-08T06:37:55.126Z,51.70
2018-04-08T06:40:21.908Z,51.60
2018-04-08T06:42:47.917Z,51.60
2018-04-08T06:45:13.922Z,51.50
2018-04-08T06:47:40.663Z,51.30
2018-04-08T06:50:08.761Z,51.00
2018-04-08T06:52:34.787Z,51.00
2018-04-08T06:55:00.778Z,50.90
2018-04-08T06:57:26.830Z,51.00
2018-04-08T06:59:52.860Z,51.40
2018-04-08T07:02:18.855Z,51.10
2018-04-08T07:04:44.890Z,50.70
2018-04-08T07:07:10.879Z,50.50
2018-04-08T07:09:36.917Z,50.60
2018-04-08T07:12:03.677Z,53.20
2018-04-08T07:14:29.814Z,52.90
2018-04-08T07:16:55.863Z,55.50
2018-04-08T07:19:21.858Z,51.70
2018-04-08T07:21:47.858Z,46.70
2018-04-08T07:24:14.598Z,46.50
2018-04-08T07:26:41.339Z,48.10
2018-04-08T07:29:08.067Z,49.00
2018-04-08T07:31:34.807Z,48.50
2018-04-08T07:34:00.787Z,49.00
2018-04-08T07:36:26.946Z,49.00
2018-04-08T07:38:52.976Z,49.00
2018-04-08T07:41:18.975Z,49.10
2018-04-08T07:43:44.964Z,49.10
2018-04-08T07:46:10.968Z,49.10
2018-04-08T07:48:37.710Z,49.40
2018-04-08T07:51:04.455Z,49.70
2018-04-08T07:53:30.487Z,49.80
2018-04-08T07:55:56.490Z,50.30
2018-04-08T07:58:23.226Z,50.40
2018-04-08T08:00:49.967Z,51.30
2018-04-08T08:03:16.686Z,51.20
2018-04-08T08:05:42.685Z,51.10
2018-04-08T08:08:08.679Z,50.70
2018-04-08T08:10:35.399Z,51.10
2018-04-08T08:13:02.190Z,51.50
2018-04-08T08:15:28.398Z,51.50
2018-04-08T08:17:54.435Z,50.70
2018-04-08T08:20:20.418Z,50.50
2018-04-08T08:22:47.750Z,50.50
2018-04-08T08:25:13.899Z,50.50
2018-04-08T08:27:40.137Z,50.30
2018-04-08T08:30:06.162Z,49.80
2018-04-08T08:32:32.178Z,50.20
2018-04-08T08:34:58.915Z,50.00
2018-04-08T08:37:25.656Z,50.20
2018-04-08T08:39:52.385Z,49.80
2018-04-08T08:42:19.231Z,49.50
2018-04-08T08:44:45.950Z,48.40
2018-04-08T08:47:11.950Z,48.40
2018-04-08T08:49:38.139Z,48.10
2018-04-08T08:52:04.134Z,47.30
2018-04-08T08:54:30.163Z,46.30
2018-04-08T08:56:56.915Z,48.40
2018-04-08T08:59:23.657Z,47.80
2018-04-08T09:01:50.398Z,47.60
2018-04-08T09:04:17.151Z,47.90
2018-04-08T09:06:43.238Z,47.90
2018-04-08T09:09:09.171Z,47.80
2018-04-08T09:11:35.935Z,48.60
2018-04-08T09:14:01.935Z,48.60
2018-04-08T09:16:28.709Z,48.80
2018-04-08T09:18:58.570Z,48.80
2018-04-08T09:21:30.691Z,49.90
2018-04-08T09:24:03.002Z,49.40
2018-04-08T09:26:29.039Z,48.60
2018-04-08T09:28:55.035Z,48.50
2018-04-08T09:31:21.039Z,48.10
2018-04-08T09:33:47.036Z,48.40
2018-04-08T09:36:13.025Z,48.80
2018-04-08T09:38:39.013Z,49.30
2018-04-08T09:41:05.027Z,48.80
2018-04-08T09:43:31.036Z,48.10
2018-04-08T09:45:57.914Z,47.90
2018-04-08T09:48:23.908Z,47.90
2018-04-08T09:50:50.618Z,48.00
2018-04-08T09:53:16.623Z,48.00
2018-04-08T09:55:42.645Z,47.70
2018-04-08T09:58:09.632Z,47.70
2018-04-08T10:00:53.219Z,46.50
2018-04-08T10:03:34.998Z,46.50
2018-04-08T10:06:01.124Z,47.30
2018-04-08T10:08:27.167Z,47.10
2018-04-08T10:10:53.155Z,46.50
2018-04-08T10:13:19.151Z,46.00
2018-04-08T10:15:45.895Z,46.70
2018-04-08T10:18:12.643Z,45.80
2018-04-08T10:20:39.487Z,44.80
2018-04-08T10:23:06.239Z,43.60
2018-04-08T10:25:32.223Z,43.50
2018-04-08T10:27:58.219Z,43.30
2018-04-08T10:30:24.202Z,42.80
2018-04-08T10:32:50.202Z,42.20
2018-04-08T10:35:16.964Z,41.30
2018-04-08T10:37:42.954Z,41.10
2018-04-08T10:40:08.931Z,42.40
2018-04-08T10:42:34.923Z,42.50
2018-04-08T10:45:01.659Z,41.40
2018-04-08T10:47:28.420Z,42.70
2018-04-08T10:49:54.423Z,42.80
2018-04-08T10:52:21.175Z,40.30
2018-04-08T10:54:47.166Z,40.20
2018-04-08T10:57:13.894Z,40.80
2018-04-08T10:59:39.900Z,40.80
2018-04-08T11:02:05.878Z,40.50
2018-04-08T11:04:32.616Z,40.30
2018-04-08T11:06:59.338Z,40.40
2018-04-08T11:09:26.098Z,39.80
2018-04-08T11:11:52.843Z,39.70
2018-04-08T11:14:18.872Z,39.70
2018-04-08T11:16:45.578Z,37.90
2018-04-08T11:19:11.578Z,37.80
2018-04-08T11:21:37.551Z,38.30
2018-04-08T11:24:03.567Z,38.40
2018-04-08T11:26:30.290Z,37.70
2018-04-08T11:28:57.774Z,35.80
2018-04-08T11:31:23.919Z,35.70
2018-04-08T11:33:49.915Z,35.60
2018-04-08T11:36:16.643Z,34.80
2018-04-08T11:38:43.447Z,34.70
2018-04-08T11:41:09.488Z,34.00
2018-04-08T11:43:35.479Z,34.70
2018-04-08T11:46:01.478Z,34.20
2018-04-08T11:48:27.478Z,34.70
2018-04-08T11:50:54.207Z,33.00
2018-04-08T11:53:20.219Z,33.30
2018-04-08T11:55:46.235Z,33.10
2018-04-08T11:58:12.259Z,32.70
2018-04-08T12:00:38.384Z,34.50
2018-04-08T12:03:04.387Z,33.20
2018-04-08T12:05:30.383Z,32.30
2018-04-08T12:07:56.369Z,33.30
2018-04-08T12:10:22.847Z,33.20
2018-04-08T12:12:48.834Z,31.80
2018-04-08T12:15:14.835Z,32.00
2018-04-08T12:17:40.833Z,31.30
2018-04-08T12:20:06.847Z,31.90
2018-04-08T12:22:32.853Z,31.60
2018-04-08T12:24:58.873Z,31.20
2018-04-08T12:27:24.903Z,30.10
2018-04-08T12:29:50.915Z,30.50
2018-04-08T12:32:16.902Z,30.80
2018-04-08T12:34:42.906Z,30.80
2018-04-08T12:37:08.907Z,30.10
2018-04-08T12:39:34.911Z,29.50
2018-04-08T12:42:01.635Z,30.10
2018-04-08T12:44:28.394Z,29.60
2018-04-08T12:46:55.147Z,29.30
2018-04-08T12:49:21.200Z,29.10
2018-04-08T12:51:47.205Z,29.20
2018-04-08T12:54:13.201Z,28.90
2018-04-08T12:56:39.999Z,28.80
2018-04-08T12:59:05.982Z,28.80
2018-04-08T13:01:31.994Z,28.60
2018-04-08T13:03:58.759Z,28.80
2018-04-08T13:06:24.790Z,28.90
2018-04-08T13:08:50.779Z,29.30
2018-04-08T13:11:16.803Z,28.20
2018-04-08T13:13:43.576Z,28.50
2018-04-08T13:16:09.610Z,28.50
2018-04-08T13:18:35.605Z,27.30
2018-04-08T13:21:01.615Z,27.60
2018-04-08T13:23:28.340Z,27.50
2018-04-08T13:25:55.074Z,27.60
2018-04-08T13:28:21.942Z,27.30
2018-04-08T13:30:48.679Z,27.70
2018-04-08T13:33:15.397Z,27.50
2018-04-08T13:35:41.403Z,27.50
2018-04-08T13:38:07.383Z,27.50
2018-04-08T13:40:33.397Z,27.10
2018-04-08T13:43:00.111Z,27.30
2018-04-08T13:45:26.113Z,27.20
2018-04-08T13:47:52.086Z,27.00
2018-04-08T13:50:18.070Z,27.00
2018-04-08T13:52:44.051Z,26.00
2018-04-08T13:55:10.175Z,26.10
2018-04-08T13:57:36.183Z,26.70
2018-04-08T14:00:02.194Z,25.80
2018-04-08T14:02:28.930Z,25.90
2018-04-08T14:04:55.655Z,26.60
2018-04-08T14:07:21.655Z,26.60
2018-04-08T14:09:48.538Z,25.00
2018-04-08T14:12:15.279Z,26.10
2018-04-08T14:14:41.998Z,26.20
2018-04-08T14:17:08.003Z,26.20
2018-04-08T14:19:33.964Z,26.00
2018-04-08T14:22:00.805Z,25.20
2018-04-08T14:24:26.965Z,25.10
2018-04-08T14:26:52.954Z,25.10
2018-04-08T14:29:19.682Z,24.90
2018-04-08T14:31:46.425Z,25.40
2018-04-08T14:34:12.415Z,25.40
2018-04-08T14:36:38.433Z,25.70
2018-04-08T14:39:04.423Z,25.00
2018-04-08T14:41:30.429Z,25.10
2018-04-08T14:43:57.156Z,25.10
2018-04-08T14:46:23.154Z,25.10
2018-04-08T14:48:49.147Z,26.00
2018-04-08T14:51:15.155Z,25.40
2018-04-08T14:53:41.272Z,24.80
2018-04-08T14:56:07.322Z,24.90
2018-04-08T14:58:33.294Z,24.80
2018-04-08T15:00:59.312Z,25.60
2018-04-08T15:03:25.290Z,24.90
2018-04-08T15:05:51.283Z,24.80
2018-04-08T15:08:17.272Z,24.90
2018-04-08T15:10:43.362Z,25.00
2018-04-08T15:13:09.517Z,25.10
2018-04-08T15:15:35.514Z,25.00
2018-04-08T15:18:01.706Z,25.00
2018-04-08T15:20:27.706Z,25.00
2018-04-08T15:22:53.843Z,24.90
2018-04-08T15:25:19.818Z,24.90
2018-04-08T15:27:45.811Z,25.00
2018-04-08T15:30:11.791Z,24.80
2018-04-08T15:32:37.815Z,25.90
2018-04-08T15:35:03.803Z,25.10
2018-04-08T15:37:29.799Z,25.50
2018-04-08T15:39:56.525Z,25.80
2018-04-08T15:42:23.279Z,26.70
2018-04-08T15:44:50.003Z,26.20
2018-04-08T15:47:16.763Z,26.00
2018-04-08T15:49:43.483Z,26.00
2018-04-08T15:52:10.238Z,25.20
2018-04-08T15:54:36.979Z,25.70
2018-04-08T15:57:03.742Z,25.70
2018-04-08T15:59:29.746Z,25.70
2018-04-08T16:01:56.486Z,26.10
2018-04-08T16:04:23.239Z,25.30
2018-04-08T16:06:49.268Z,25.20
2018-04-08T16:09:15.312Z,25.50
2018-04-08T16:11:42.006Z,26.70
2018-04-08T16:14:07.976Z,26.80
2018-04-08T16:16:34.112Z,27.30
2018-04-08T16:19:00.091Z,27.90
2018-04-08T16:21:26.080Z,28.20
2018-04-08T16:23:52.065Z,28.40
2018-04-08T16:26:18.055Z,27.90
2018-04-08T16:28:44.790Z,27.50
2018-04-08T16:31:11.514Z,27.20
2018-04-08T16:33:38.283Z,27.30
2018-04-08T16:36:04.283Z,27.30
2018-04-08T16:38:31.026Z,27.30
2018-04-08T16:40:57.951Z,27.50
2018-04-08T16:43:24.020Z,27.50
2018-04-08T16:45:49.978Z,27.30
2018-04-08T16:48:15.967Z,27.90
2018-04-08T16:50:41.942Z,28.00
2018-04-08T16:53:08.818Z,28.50
2018-04-08T16:55:34.827Z,28.50
2018-04-08T16:58:01.592Z,28.40
2018-04-08T17:00:28.431Z,28.50
2018-04-08T17:02:55.166Z,29.50
2018-04-08T17:05:21.998Z,29.30
2018-04-08T17:07:48.726Z,29.60
2018-04-08T17:10:14.715Z,29.60
2018-04-08T17:12:40.729Z,29.60
2018-04-08T17:15:07.537Z,30.30
2018-04-08T17:17:33.546Z,30.30
2018-04-08T17:19:59.593Z,30.00
2018-04-08T17:22:25.583Z,30.10
2018-04-08T17:24:51.722Z,31.10
2018-04-08T17:27:17.727Z,31.30
2018-04-08T17:29:43.885Z,31.20
2018-04-08T17:32:10.679Z,32.30
2018-04-08T17:34:36.679Z,32.40
2018-04-08T17:37:02.668Z,32.60
2018-04-08T17:39:28.682Z,32.50
2018-04-08T17:41:55.426Z,33.20
2018-04-08T17:44:21.421Z,32.90
2018-04-08T17:46:47.409Z,32.90
2018-04-08T17:49:13.578Z,33.80
2018-04-08T17:51:39.591Z,34.40
2018-04-08T17:54:05.659Z,34.30
2018-04-08T17:56:32.398Z,35.50
2018-04-08T17:58:59.451Z,36.00
2018-04-08T18:01:26.300Z,35.30
2018-04-08T18:03:52.323Z,35.30
2018-04-08T18:06:18.321Z,35.80
2018-04-08T18:08:44.316Z,36.50
2018-04-08T18:11:11.818Z,36.70
2018-04-08T18:13:38.560Z,37.80
2018-04-08T18:16:05.298Z,38.00
2018-04-08T18:18:32.023Z,38.10
2018-04-08T18:20:58.165Z,38.80
2018-04-08T18:23:24.882Z,38.70
2018-04-08T18:25:50.882Z,38.80
2018-04-08T18:28:16.883Z,39.00
2018-04-08T18:30:42.875Z,38.90
2018-04-08T18:33:09.598Z,39.30
2018-04-08T18:35:36.338Z,39.50
2018-04-08T18:38:02.320Z,39.60
2018-04-08T18:40:28.377Z,39.40
2018-04-08T18:42:54.367Z,39.50
2018-04-08T18:45:20.490Z,39.60
2018-04-08T18:47:46.482Z,39.70
2018-04-08T18:50:13.220Z,40.30
2018-04-08T18:52:40.016Z,40.30
2018-04-08T18:55:06.043Z,40.30
2018-04-08T18:57:32.022Z,39.90
2018-04-08T18:59:58.751Z,41.00
2018-04-08T19:02:24.751Z,40.90
2018-04-08T19:04:50.714Z,40.70
2018-04-08T19:07:16.715Z,41.00
2018-04-08T19:09:43.439Z,41.30
2018-04-08T19:12:09.441Z,41.20
2018-04-08T19:14:41.474Z,41.60
2018-04-08T19:17:07.482Z,41.80
2018-04-08T19:19:33.502Z,41.50
2018-04-08T19:21:59.508Z,41.80
2018-04-08T19:24:26.240Z,41.90
2018-04-08T19:26:52.978Z,43.20
2018-04-08T19:29:18.954Z,42.50
2018-04-08T19:31:44.943Z,41.80
2018-04-08T19:34:11.687Z,41.90
2018-04-08T19:36:37.695Z,42.80
2018-04-08T19:39:04.426Z,43.20
2018-04-08T19:41:30.449Z,43.00
2018-04-08T19:43:56.430Z,42.80
2018-04-08T19:46:22.436Z,42.50
2018-04-08T19:48:48.418Z,43.10
2018-04-08T19:51:14.418Z,43.40
2018-04-08T19:53:40.415Z,43.50
2018-04-08T19:56:06.425Z,43.40
2018-04-08T19:58:32.444Z,43.70
2018-04-08T20:00:58.407Z,43.90
2018-04-08T20:03:24.411Z,44.00
2018-04-08T20:05:50.419Z,44.50
2018-04-08T20:08:16.423Z,44.70
2018-04-08T20:10:42.383Z,44.80
2018-04-08T20:13:08.394Z,43.90
2018-04-08T20:15:35.094Z,45.80
2018-04-08T20:18:01.103Z,45.80
2018-04-08T20:20:28.603Z,46.40
2018-04-08T20:22:54.614Z,46.40
2018-04-08T20:25:21.334Z,47.10
2018-04-08T20:27:47.359Z,47.10
2018-04-08T20:30:13.343Z,47.50
2018-04-08T20:32:39.339Z,47.10
2018-04-08T20:35:05.345Z,47.40
2018-04-08T20:37:32.102Z,47.80
2018-04-08T20:39:58.246Z,47.80
2018-04-08T20:42:24.243Z,47.80
2018-04-08T20:44:50.234Z,47.60
2018-04-08T20:47:16.443Z,48.10
2018-04-08T20:49:42.431Z,47.90
2018-04-08T20:52:08.462Z,47.70
2018-04-08T20:54:34.469Z,48.70
2018-04-08T20:57:00.463Z,47.90
2018-04-08T20:59:26.474Z,47.80
2018-04-08T21:01:52.463Z,48.20
2018-04-08T21:04:18.450Z,47.90
2018-04-08T21:06:45.191Z,47.90
2018-04-08T21:09:11.302Z,47.90
2018-04-08T21:11:37.299Z,48.00
2018-04-08T21:14:03.320Z,48.10
2018-04-08T21:16:30.074Z,48.80
2018-04-08T21:18:56.065Z,48.10
2018-04-08T21:21:22.036Z,48.10
2018-04-08T21:23:48.798Z,49.00
2018-04-08T21:26:15.526Z,48.20
2018-04-08T21:28:42.308Z,48.00
2018-04-08T21:31:08.278Z,47.80
2018-04-08T21:33:34.443Z,47.90
2018-04-08T21:36:01.151Z,47.70
2018-04-08T21:38:27.906Z,48.10
2018-04-08T21:40:54.645Z,47.70
2018-04-08T21:43:21.386Z,47.60
2018-04-08T21:45:48.135Z,47.50
2018-04-08T21:48:14.123Z,47.50
2018-04-08T21:50:40.155Z,48.60
2018-04-08T21:53:06.155Z,47.60
2018-04-08T21:55:32.182Z,48.30
2018-04-08T21:57:58.201Z,48.30
2018-04-08T22:00:24.195Z,47.90
2018-04-08T22:02:50.336Z,48.40
2018-04-08T22:05:16.335Z,48.30
2018-04-08T22:07:42.350Z,48.50
2018-04-08T22:10:08.361Z,48.30
2018-04-08T22:12:35.091Z,48.40
2018-04-08T22:15:01.087Z,48.40
2018-04-08T22:17:27.086Z,48.70
2018-04-08T22:19:53.077Z,48.60
2018-04-08T22:22:19.810Z,48.10
2018-04-08T22:24:46.551Z,48.10
2018-04-08T22:27:13.276Z,47.90
2018-04-08T22:29:40.018Z,48.20
2018-04-08T22:32:05.994Z,48.10
2018-04-08T22:34:31.999Z,48.10
2018-04-08T22:36:57.976Z,48.10
2018-04-08T22:39:23.983Z,48.10
2018-04-08T22:41:49.968Z,48.40
2018-04-08T22:44:15.975Z,48.20
2018-04-08T22:46:41.954Z,47.80
2018-04-08T22:49:07.947Z,47.80
2018-04-08T22:51:33.947Z,47.80
2018-04-08T22:54:00.735Z,47.80
2018-04-08T22:56:26.739Z,47.70
2018-04-08T22:58:52.732Z,48.00
2018-04-08T23:01:19.474Z,48.00
2018-04-08T23:03:46.191Z,48.10
2018-04-08T23:06:12.196Z,48.00
2018-04-08T23:08:38.198Z,48.30
2018-04-08T23:11:04.207Z,48.30
2018-04-08T23:13:30.239Z,48.40
2018-04-08T23:15:56.235Z,48.60
2018-04-08T23:18:22.245Z,48.50
2018-04-08T23:20:48.974Z,48.80
2018-04-08T23:23:15.017Z,48.80
2018-04-08T23:25:41.959Z,48.50
2018-04-08T23:28:08.687Z,48.50
2018-04-08T23:30:35.438Z,49.20
2018-04-08T23:33:02.183Z,48.30
2018-04-08T23:35:29.027Z,48.40
2018-04-08T23:37:55.766Z,48.50
2018-04-08T23:40:22.507Z,48.50
2018-04-08T23:42:49.250Z,48.40
2018-04-08T23:45:15.984Z,48.80
2018-04-08T23:47:42.731Z,49.20
2018-04-08T23:50:09.477Z,49.40
2018-04-08T23:52:36.211Z,49.00
2018-04-08T23:55:02.966Z,49.20
2018-04-08T23:57:29.691Z,49.10
2018-04-08T23:59:56.414Z,49.60
